Alibag, India

6:15 PM IST on October 24, 2014 (GMT +0530)
Chhatrapati Shivaji International | Change Station
CLOSE
Current Station
Airport
Location: Mumbai,
Elevation: 46 ft
Nearby Weather Stations

Elev 46 ft 19.10 °N, 72.86 °E | Updated 35 minutes ago

Smoke
Smoke
90 °F
Feels Like 93 °F
N
6
Wind Variable Wind from NW

Today
High -- | Low -- °F
--% Chance of Precip.
Yesterday
High -- | Low -- °F
Precip. -- in
6:35 AM 6:10 PM
New Moon, 0% visible
Pressure 29.80 in
Visibility 2.5 miles
Clouds Few 2000 ft
Mostly Cloudy 10000 ft
Heat Index 93 °F
Dew Point 68 °F
Humidity 49%
Rainfall 0.00 in
Snow Depth Not available.
UV 0 out of 12
Pollen Not available.
Air Quality Not available.
Flu Activity Not available.
METAR VABB 241210Z 31005KT 4000 FU FEW020 BKN100 32/20 Q1009 NOSIG

More Conditions Fewer Conditions

Pressure 29.80 in
Visibility 2.5 miles
Clouds Few 2000 ft
Mostly Cloudy 10000 ft
Heat Index 93 °F
Dew Point 68 °F
Humidity 49%
Rainfall 0.00 in
Snow Depth Not available.
UV 0 out of 12
Pollen Not available.
Air Quality Not available.
Flu Activity Not available.
METAR VABB 241210Z 31005KT 4000 FU FEW020 BKN100 32/20 Q1009 NOSIG

More Conditions Fewer Conditions

10-Day Weather Forecast

Almanac

Astronomy

Oct. 24, 2014 Rise Set
Actual Time 6:35 AM IST 6:10 PM IST
Civil Twilight 6:12 AM IST 6:32 PM IST
Nautical Twilight 5:47 AM IST 6:58 PM IST
Astronomical Twilight 5:21 AM IST 7:23 PM IST
Moon 6:46 AM IST 6:35 PM IST
Length of Visible Light 12h 19m
Length of Day
11h 34m
Tomorrow will be 0m 58s shorter.
New Moon, 0% of the Moon is Illuminated
Today
New Moon
Oct 30
First Quarter
Nov 6
Full
Nov 14
Last Quarter
Nov 22
New

Yesterday's Extremes

Country Highs Country Lows

Community

WunderPhotos

Upload Photos

1,764,544 photos uploaded!

Nearby

Snow Depth

Not available.

Earthquake Activity

City Distance Mag. Time & Date
No recent earthquake activity has been reported nearby.
Minimum magnitude displayed is 2.5.

Coastal Water Temperatures

Place Temperature
No Stations Reporting

Nearby Weather Stations